CSD3 weather

Valleyfield Airport
Valleyfield, Quebec, Canada

Public forecast

Using degrees Celsius for public forecast. Weather courtesy of forecast.io.

Closest aviation weather report (METAR) to Valleyfield Airport

Closest report is Montreal / Pierre Elliott Trudeau International Airport, 23.1 nm (42.8 km) NE. Retrieved 2020/03/31 13:00 UTC (37 minutes ago):

CYUL 311300Z 05017G23KT 15SM FEW020 SCT120 02/M03 A3016 RMK CU1AC4 CU TR SLP217

Closest aviation forecast (TAF) to Valleyfield Airport

Closest forecast is Montreal / Pierre Elliott Trudeau International Airport, 23.1 nm (42.8 km) NE. Retrieved 2020/03/31 12:42 UTC (55 minutes ago):

TAF CYUL 311138Z 3112/0112 04012G22KT P6SM SCT070 BKN120 FM311700 04012G22KT P6SM SCT100 FM312300 04010KT P6SM SKC FM011000 03010KT P6SM BKN012 RMK NXT FCST BY 311500Z